Time;durP1;ratioP1;P1;durP2;ratioP2;P2;SDS_P1;SDS_P2;PMS_P1;PMS_P2;Temp;Humidity;BMP_temperature;BMP_pressure;BME280_temperature;BME280_humidity;BME280_pressure;Samples;Min_cycle;Max_cycle;Signal;HPM_P1;HPM_P2
2022/07/16 00:02:27;;;;;;;4.15;1.10;;;;;;;17.99;100.00;102093.78;5071359;28;20559;-38
2022/07/16 00:04:54;;;;;;;4.18;1.38;;;;;;;18.01;100.00;102097.13;5071921;28;20463;-32
2022/07/16 00:07:24;;;;;;;4.82;1.33;;;;;;;18.04;100.00;102101.31;5070710;28;20040;-34
2022/07/16 00:09:51;;;;;;;2.28;1.08;;;;;;;18.04;100.00;102085.22;5071685;28;20054;-32
2022/07/16 00:12:19;;;;;;;3.78;1.10;;;;;;;18.04;100.00;102101.31;5071413;28;20572;-32
2022/07/16 00:14:47;;;;;;;3.08;1.35;;;;;;;18.02;100.00;102096.00;5070522;28;20056;-32
2022/07/16 00:17:15;;;;;;;3.53;1.63;;;;;;;18.02;100.00;102104.47;5071320;28;20046;-37
2022/07/16 00:19:42;;;;;;;4.38;1.30;;;;;;;18.00;100.00;102095.47;5071457;28;20524;-38
2022/07/16 00:22:10;;;;;;;2.97;0.93;;;;;;;18.00;100.00;102095.47;5070858;28;20042;-31
2022/07/16 00:24:39;;;;;;;3.90;1.23;;;;;;;18.02;100.00;102096.00;5067748;28;20045;-33
2022/07/16 00:27:07;;;;;;;3.42;1.30;;;;;;;18.03;100.00;102097.66;5070740;28;20048;-40
2022/07/16 00:29:35;;;;;;;3.85;1.20;;;;;;;18.03;100.00;102094.84;5069556;28;20131;-34
2022/07/16 00:32:03;;;;;;;5.30;1.33;;;;;;;18.02;100.00;102096.00;5071693;28;20053;-32
2022/07/16 00:34:31;;;;;;;5.05;1.50;;;;;;;18.04;100.00;102106.97;5070404;28;20043;-32
2022/07/16 00:36:59;;;;;;;3.60;1.33;;;;;;;18.03;100.00;102111.78;5071571;28;20135;-35
2022/07/16 00:39:26;;;;;;;4.57;1.20;;;;;;;17.99;100.00;102113.56;5070886;28;20048;-33
2022/07/16 00:41:56;;;;;;;3.22;1.20;;;;;;;17.95;100.00;102114.53;5070536;28;20162;-31
2022/07/16 00:44:24;;;;;;;3.47;1.00;;;;;;;17.89;100.00;102116.66;5071039;28;20068;-34
2022/07/16 00:46:52;;;;;;;2.55;0.80;;;;;;;17.85;100.00;102121.25;5071075;28;20053;-31
2022/07/16 00:49:20;;;;;;;3.08;0.75;;;;;;;17.80;100.00;102127.00;5070426;28;20040;-32
2022/07/16 00:51:50;;;;;;;3.33;1.10;;;;;;;17.77;100.00;102122.03;5071379;28;20083;-32
2022/07/16 00:54:18;;;;;;;3.05;0.75;;;;;;;17.74;100.00;102120.66;5070874;28;20048;-32
2022/07/16 00:56:46;;;;;;;2.53;0.65;;;;;;;17.71;100.00;102117.63;5073598;28;20059;-33
2022/07/16 00:59:16;;;;;;;2.85;0.75;;;;;;;17.67;100.00;102125.06;5074532;28;20046;-32
2022/07/16 01:01:44;;;;;;;3.10;0.70;;;;;;;17.63;100.00;102123.97;5074677;28;20040;-37
2022/07/16 01:04:14;;;;;;;2.30;0.80;;;;;;;17.58;100.00;102120.13;5073703;28;20040;-34
2022/07/16 01:06:42;;;;;;;3.30;0.98;;;;;;;17.54;100.00;102130.41;5073830;28;20040;-35
2022/07/16 01:09:11;;;;;;;3.83;0.90;;;;;;;17.50;100.00;102129.34;5073662;28;20532;-33
2022/07/16 01:11:39;;;;;;;3.65;0.70;;;;;;;17.46;100.00;102131.13;5073605;28;20045;-40
2022/07/16 01:14:08;;;;;;;3.60;0.90;;;;;;;17.42;100.00;102135.72;5074124;28;20048;-33
2022/07/16 01:16:37;;;;;;;2.90;0.77;;;;;;;17.39;100.00;102130.69;5073401;28;20124;-34
2022/07/16 01:19:07;;;;;;;3.25;0.70;;;;;;;17.35;100.00;102137.31;5074175;28;20056;-32
2022/07/16 01:21:35;;;;;;;4.43;0.82;;;;;;;17.31;100.00;102136.25;5070613;28;20044;-32
2022/07/16 01:24:05;;;;;;;1.83;0.60;;;;;;;17.28;100.00;102139.69;5072889;28;20052;-38
2022/07/16 01:26:33;;;;;;;3.55;0.85;;;;;;;17.25;100.00;102137.50;5072913;28;20498;-39
2022/07/16 01:29:01;;;;;;;3.53;1.00;;;;;;;17.22;100.00;102136.97;5074240;28;20428;-34
2022/07/16 01:31:29;;;;;;;4.43;0.90;;;;;;;17.21;100.00;102142.94;5072778;28;20788;-38
2022/07/16 01:36:39;;;;;;;4.70;1.00;;;;;;;17.17;100.00;102145.56;5073533;28;20124;-40
2022/07/16 01:39:08;;;;;;;4.38;0.95;;;;;;;17.17;100.00;102150.38;5073491;28;20052;-35
2022/07/16 01:41:36;;;;;;;3.97;0.90;;;;;;;17.17;100.00;102158.84;5073782;28;20128;-34
2022/07/16 01:44:04;;;;;;;2.90;1.00;;;;;;;17.17;100.00;102153.19;5074066;28;20048;-33
2022/07/16 01:46:32;;;;;;;1.83;0.73;;;;;;;17.17;100.00;102156.00;5072623;28;20532;-35
2022/07/16 01:49:00;;;;;;;3.72;0.80;;;;;;;17.18;100.00;102152.03;5073730;28;20056;-33
2022/07/16 01:51:27;;;;;;;2.25;0.80;;;;;;;17.19;100.00;102159.31;5072907;28;20091;-33
2022/07/16 01:53:55;;;;;;;3.92;0.75;;;;;;;17.14;100.00;102160.28;5073658;28;20045;-39
2022/07/16 01:56:24;;;;;;;3.25;0.70;;;;;;;17.09;100.00;102156.72;5073275;28;20402;-32
2022/07/16 01:58:52;;;;;;;4.40;1.10;;;;;;;17.07;100.00;102161.84;5072843;28;20509;-37
2022/07/16 02:01:20;;;;;;;2.90;0.80;;;;;;;17.04;100.00;102162.44;5073119;28;20044;-38
2022/07/16 02:03:48;;;;;;;3.03;0.90;;;;;;;17.00;100.00;102161.41;5073850;28;20049;-40
2022/07/16 02:06:16;;;;;;;4.55;1.40;;;;;;;16.97;100.00;102170.50;5072683;28;20042;-34
2022/07/16 02:08:44;;;;;;;2.88;0.90;;;;;;;16.95;100.00;102164.34;5072504;28;20049;-39
2022/07/16 02:11:11;;;;;;;3.78;1.00;;;;;;;16.91;100.00;102163.28;5073184;28;20044;-41
2022/07/16 02:13:42;;;;;;;3.50;0.90;;;;;;;16.85;100.00;102166.19;5072210;28;20049;-32
2022/07/16 02:16:11;;;;;;;4.68;1.15;;;;;;;16.78;100.00;102164.94;5073344;28;20037;-33
2022/07/16 02:18:39;;;;;;;2.45;0.80;;;;;;;16.73;100.00;102174.31;5073096;28;20131;-33
2022/07/16 02:21:07;;;;;;;4.40;0.93;;;;;;;16.66;100.00;102171.03;5072574;28;20041;-37
2022/07/16 02:23:35;;;;;;;3.75;0.93;;;;;;;16.62;100.00;102172.75;5072575;28;20048;-35
2022/07/16 02:26:03;;;;;;;3.85;1.20;;;;;;;16.56;100.00;102167.53;5072958;28;20060;-40
2022/07/16 02:28:30;;;;;;;3.92;1.15;;;;;;;16.53;100.00;102171.81;5071807;28;20053;-33
2022/07/16 02:30:59;;;;;;;3.35;0.90;;;;;;;16.48;100.00;102169.06;5073167;28;20062;-33
2022/07/16 02:33:27;;;;;;;2.13;0.90;;;;;;;16.46;100.00;102177.00;5072383;28;20038;-33
2022/07/16 02:35:55;;;;;;;2.28;0.88;;;;;;;16.42;100.00;102179.56;5072093;28;20501;-38
2022/07/16 02:38:23;;;;;;;3.15;0.95;;;;;;;16.39;100.00;102183.00;5072361;28;20046;-36
2022/07/16 02:40:50;;;;;;;4.45;1.17;;;;;;;16.37;100.00;102187.28;5072048;28;20421;-36
2022/07/16 02:43:18;;;;;;;6.10;1.30;;;;;;;16.36;100.00;102191.25;5072228;28;20512;-38
2022/07/16 02:45:46;;;;;;;3.15;1.05;;;;;;;16.34;100.00;102191.56;5072631;28;20603;-32
2022/07/16 02:48:15;;;;;;;5.25;1.10;;;;;;;16.32;100.00;102193.00;5071428;28;20048;-34
2022/07/16 02:50:43;;;;;;;3.78;1.10;;;;;;;16.29;100.00;102197.25;5061879;28;20049;-34
2022/07/16 02:53:11;;;;;;;3.22;1.05;;;;;;;16.26;100.00;102197.03;5072134;28;20139;-34
2022/07/16 02:55:39;;;;;;;3.92;1.10;;;;;;;16.21;100.00;102197.94;5071459;28;20053;-35
2022/07/16 02:58:06;;;;;;;3.28;1.05;;;;;;;16.13;100.00;102202.28;5072388;28;20047;-41
2022/07/16 03:00:35;;;;;;;3.65;1.00;;;;;;;16.08;100.00;102201.53;5072649;28;20058;-36
2022/07/16 03:03:03;;;;;;;3.75;1.00;;;;;;;16.05;100.00;102211.41;5071500;28;20044;-35
2022/07/16 03:05:32;;;;;;;4.40;0.90;;;;;;;16.02;100.00;102206.38;5072028;28;20045;-36
2022/07/16 03:08:00;;;;;;;3.50;1.15;;;;;;;15.98;100.00;102208.16;5071767;28;20056;-32
2022/07/16 03:10:27;;;;;;;5.18;1.08;;;;;;;15.96;100.00;102212.41;5070190;28;20049;-38
2022/07/16 03:12:55;;;;;;;4.90;1.52;;;;;;;15.94;100.00;102211.88;5070555;28;20071;-38
2022/07/16 03:15:23;;;;;;;2.92;1.00;;;;;;;15.91;100.00;102224.56;5070017;28;20048;-34
2022/07/16 03:17:51;;;;;;;6.18;1.42;;;;;;;15.90;100.00;102217.25;5069348;28;20071;-34
2022/07/16 03:20:19;;;;;;;5.70;1.20;;;;;;;15.89;100.00;102221.22;5070476;28;20060;-37
2022/07/16 03:22:48;;;;;;;6.07;1.60;;;;;;;15.91;100.00;102224.56;5070858;28;20053;-41
2022/07/16 03:25:17;;;;;;;5.38;1.40;;;;;;;15.91;100.00;102230.19;5070851;28;20044;-32
2022/07/16 03:27:45;;;;;;;10.85;1.60;;;;;;;15.89;100.00;102237.25;5071789;28;20559;-30
2022/07/16 03:30:15;;;;;;;9.10;1.17;;;;;;;15.87;100.00;102234.75;5070463;28;20405;-32
2022/07/16 03:32:42;;;;;;;5.00;0.90;;;;;;;15.81;100.00;102239.59;5072054;28;20052;-36
2022/07/16 03:35:12;;;;;;;7.90;1.40;;;;;;;15.78;100.00;102248.66;5070954;28;20089;-38
2022/07/16 03:40:25;;;;;;;4.78;0.95;;;;;;;15.70;100.00;102259.75;5070907;28;20405;-36
2022/07/16 03:42:53;;;;;;;3.58;1.00;;;;;;;15.67;100.00;102258.38;5069730;28;20049;-36
2022/07/16 03:45:21;;;;;;;5.85;0.88;;;;;;;15.62;100.00;102266.00;5069179;28;20044;-37
2022/07/16 03:47:49;;;;;;;4.45;1.00;;;;;;;15.59;100.00;102264.63;5071242;28;20079;-33
2022/07/16 03:50:17;;;;;;;7.15;0.90;;;;;;;15.57;100.00;102264.13;5071162;28;20140;-31
2022/07/16 03:52:45;;;;;;;3.63;0.80;;;;;;;15.58;100.00;102270.59;5059506;28;20055;-33
2022/07/16 03:55:13;;;;;;;3.40;0.88;;;;;;;15.57;100.00;102269.75;5071060;28;20139;-35
2022/07/16 03:57:42;;;;;;;6.07;1.02;;;;;;;15.57;100.00;102266.09;5071628;28;20048;-32
2022/07/16 04:00:12;;;;;;;5.72;1.00;;;;;;;15.55;100.00;102273.97;5069626;28;20051;-37
2022/07/16 04:02:40;;;;;;;3.78;1.05;;;;;;;15.52;100.00;102278.22;5067720;28;20051;-41
2022/07/16 04:05:09;;;;;;;3.65;0.70;;;;;;;15.50;100.00;102275.69;5070599;28;20041;-39
2022/07/16 04:07:37;;;;;;;5.93;0.90;;;;;;;15.48;100.00;102272.34;5071272;28;20072;-32
2022/07/16 04:10:06;;;;;;;3.97;1.05;;;;;;;15.45;100.00;102278.53;5071249;28;20493;-39
2022/07/16 04:12:33;;;;;;;5.45;1.10;;;;;;;15.44;100.00;102273.22;5070271;28;20055;-35
2022/07/16 04:15:03;;;;;;;4.85;0.98;;;;;;;15.43;100.00;102280.81;5071187;28;20047;-33
2022/07/16 04:17:31;;;;;;;5.90;1.00;;;;;;;15.45;100.00;102289.81;5071305;28;20138;-32
2022/07/16 04:19:59;;;;;;;4.75;1.08;;;;;;;15.46;100.00;102287.81;5051255;28;20057;-34
2022/07/16 04:22:27;;;;;;;3.05;0.80;;;;;;;15.44;100.00;102288.13;5070221;28;20131;-40
2022/07/16 04:24:55;;;;;;;5.88;0.85;;;;;;;15.42;100.00;102284.75;5071308;28;20060;-32
2022/07/16 04:27:22;;;;;;;5.00;1.10;;;;;;;15.42;100.00;102295.19;5070145;28;20044;-31
2022/07/16 04:29:50;;;;;;;4.88;0.82;;;;;;;15.41;100.00;102305.59;5072103;28;20083;-31
2022/07/16 04:32:21;;;;;;;2.95;0.73;;;;;;;15.40;100.00;102300.25;5074822;28;20131;-31
2022/07/16 04:34:48;;;;;;;5.32;0.85;;;;;;;15.39;100.00;102302.22;5074384;28;20438;-33
2022/07/16 04:37:16;;;;;;;4.15;0.90;;;;;;;15.41;99.83;102305.59;5074498;28;20036;-36
2022/07/16 04:39:44;;;;;;;7.82;1.10;;;;;;;15.43;99.82;102306.13;5074898;28;20055;-31
2022/07/16 04:42:12;;;;;;;7.05;1.30;;;;;;;15.47;100.00;102314.81;5074023;28;20051;-36
2022/07/16 04:44:40;;;;;;;4.35;0.90;;;;;;;15.49;100.00;102312.56;5074989;28;20054;-36
2022/07/16 04:47:07;;;;;;;2.60;0.70;;;;;;;15.52;100.00;102311.97;5074396;28;20404;-32
2022/07/16 04:49:36;;;;;;;5.65;0.98;;;;;;;15.54;100.00;102318.13;5074188;28;20552;-36
2022/07/16 04:52:05;;;;;;;3.88;0.73;;;;;;;15.55;100.00;102319.81;5074199;28;20063;-31
2022/07/16 04:54:34;;;;;;;3.78;0.80;;;;;;;15.55;100.00;102316.16;5074142;28;20361;-31
2022/07/16 04:57:01;;;;;;;5.38;1.13;;;;;;;15.54;99.75;102320.97;5074111;28;20132;-32
2022/07/16 04:59:29;;;;;;;3.17;0.80;;;;;;;15.56;99.25;102320.69;5074620;28;20593;-32
2022/07/16 05:02:56;;;;;;;4.63;0.60;;;;;;;15.55;98.61;102321.78;5073459;28;20036;-33
2022/07/16 05:04:46;;;;;;;4.30;0.80;;;;;;;15.55;98.22;102327.41;5071425;28;20519;-37
2022/07/16 05:07:14;;;;;;;4.15;0.77;;;;;;;15.56;97.21;102329.13;5074172;28;20550;-38
2022/07/16 05:09:43;;;;;;;1.55;0.50;;;;;;;15.56;96.85;102332.78;5071919;28;20144;-34
2022/07/16 05:12:10;;;;;;;3.80;0.70;;;;;;;15.57;96.24;102325.19;5073024;28;20051;-34
2022/07/16 05:14:38;;;;;;;2.75;0.68;;;;;;;15.58;95.48;102324.06;5073697;28;20128;-38
2022/07/16 05:17:06;;;;;;;3.92;0.63;;;;;;;15.60;95.08;102318.94;5073196;28;20510;-32
2022/07/16 05:19:34;;;;;;;4.65;0.70;;;;;;;15.63;94.52;102323.97;5074353;28;20076;-33
2022/07/16 05:22:04;;;;;;;2.70;0.70;;;;;;;15.65;94.61;102330.97;5054507;28;20053;-40
2022/07/16 05:24:32;;;;;;;3.42;1.13;;;;;;;15.67;94.70;102325.91;5072439;28;20048;-30
2022/07/16 05:27:00;;;;;;;4.40;1.23;;;;;;;15.69;94.30;102329.25;5074343;28;20132;-41
2022/07/16 05:29:28;;;;;;;2.78;0.80;;;;;;;15.72;93.97;102327.81;5072968;28;20466;-32
2022/07/16 05:31:56;;;;;;;3.75;0.73;;;;;;;15.73;93.66;102323.88;5074172;28;20052;-32
2022/07/16 05:34:24;;;;;;;6.68;0.77;;;;;;;15.74;93.82;102331.19;5073957;28;20467;-38
2022/07/16 05:36:51;;;;;;;4.28;0.82;;;;;;;15.77;93.72;102327.78;5073459;28;20076;-37
2022/07/16 05:39:21;;;;;;;3.15;0.70;;;;;;;15.81;94.04;102328.84;5073617;28;20450;-32
2022/07/16 05:41:49;;;;;;;3.80;0.80;;;;;;;15.84;94.02;102328.25;5073766;28;20135;-32
2022/07/16 05:44:16;;;;;;;3.03;0.70;;;;;;;15.85;93.88;102330.75;5072754;28;20048;-35
2022/07/16 05:46:44;;;;;;;4.90;0.80;;;;;;;15.87;93.70;102336.09;5072780;28;20032;-41
2022/07/16 05:49:12;;;;;;;4.55;0.70;;;;;;;15.87;92.49;102336.09;5073563;28;20044;-33
2022/07/16 05:51:40;;;;;;;4.97;0.95;;;;;;;15.88;91.60;102339.75;5073189;28;20123;-32
2022/07/16 05:54:08;;;;;;;4.95;0.95;;;;;;;15.90;90.73;102345.91;5073543;28;21154;-38
2022/07/16 05:56:37;;;;;;;5.28;1.10;;;;;;;15.92;90.40;102344.50;5073764;28;20161;-32
2022/07/16 05:59:05;;;;;;;2.25;0.60;;;;;;;15.96;89.44;102344.75;5072880;28;20048;-35
2022/07/16 06:01:33;;;;;;;4.35;0.70;;;;;;;15.98;88.58;102350.91;5073753;28;20045;-39
2022/07/16 06:04:00;;;;;;;2.50;0.70;;;;;;;16.01;88.73;102365.19;5073714;28;20055;-33
2022/07/16 06:06:28;;;;;;;3.40;0.68;;;;;;;16.05;88.70;102357.84;5071966;28;20048;-33
2022/07/16 06:08:56;;;;;;;3.97;0.63;;;;;;;16.10;88.13;102363.41;5073371;28;20054;-36
2022/07/16 06:11:24;;;;;;;5.72;1.15;;;;;;;16.13;87.72;102365.63;5073070;28;20071;-37
2022/07/16 06:13:53;;;;;;;4.90;0.80;;;;;;;16.19;87.67;102372.88;5072794;28;20147;-38
2022/07/16 06:16:22;;;;;;;4.20;0.90;;;;;;;16.25;86.97;102372.81;5073119;28;20536;-31
2022/07/16 06:18:50;;;;;;;5.57;1.08;;;;;;;16.33;86.62;102380.59;5072546;28;20079;-32
2022/07/16 06:21:18;;;;;;;4.13;0.80;;;;;;;16.43;85.79;102375.66;5072792;28;20083;-33
2022/07/16 06:23:46;;;;;;;3.78;0.73;;;;;;;16.53;84.82;102372.72;5073147;28;20139;-35
2022/07/16 06:26:14;;;;;;;4.60;0.85;;;;;;;16.63;84.07;102382.16;5072252;28;20040;-38
2022/07/16 06:28:42;;;;;;;2.65;0.60;;;;;;;16.75;84.16;102383.44;5073270;28;20097;-38
2022/07/16 06:31:11;;;;;;;3.30;0.85;;;;;;;16.92;84.24;102390.53;5072871;28;20054;-33
2022/07/16 06:33:39;;;;;;;5.80;1.02;;;;;;;17.09;83.10;102382.38;5072369;28;20045;-36
2022/07/16 06:36:07;;;;;;;4.40;0.63;;;;;;;17.30;82.32;102389.34;5072420;28;20573;-40
2022/07/16 06:38:35;;;;;;;5.35;0.70;;;;;;;17.64;81.99;102391.03;5072738;28;20159;-35
2022/07/16 06:41:03;;;;;;;4.35;0.77;;;;;;;18.06;81.11;102392.81;5071724;28;20053;-33
2022/07/16 06:43:31;;;;;;;3.25;0.73;;;;;;;18.54;79.88;102394.06;5072883;28;20036;-35
2022/07/16 06:45:59;;;;;;;4.60;0.80;;;;;;;19.08;77.67;102402.78;5072516;28;20047;-37
2022/07/16 06:48:28;;;;;;;3.42;0.85;;;;;;;19.57;75.18;102408.38;5072245;28;20055;-33
2022/07/16 06:50:56;;;;;;;4.93;0.70;;;;;;;20.04;72.27;102403.13;5072112;28;20484;-32
2022/07/16 06:53:24;;;;;;;3.28;0.52;;;;;;;20.46;69.61;102412.16;5071971;28;20428;-33
2022/07/16 06:55:52;;;;;;;3.10;0.63;;;;;;;21.04;67.42;102419.47;5071753;28;20457;-39
2022/07/16 06:58:20;;;;;;;3.13;0.55;;;;;;;21.53;64.26;102421.84;5072040;28;20128;-34
2022/07/16 07:00:47;;;;;;;4.82;0.60;;;;;;;21.87;62.45;102414.41;5072441;28;20127;-33
2022/07/16 07:03:15;;;;;;;2.90;0.80;;;;;;;22.15;60.51;102415.69;5071798;28;20059;-34
2022/07/16 07:05:44;;;;;;;4.15;0.70;;;;;;;22.51;58.63;102422.91;5072374;28;20060;-35
2022/07/16 07:08:12;;;;;;;4.22;0.98;;;;;;;22.84;57.42;102435.28;5071438;28;20066;-33
2022/07/16 07:10:40;;;;;;;3.33;0.70;;;;;;;23.25;56.29;102431.63;5072362;28;20135;-36
2022/07/16 07:13:08;;;;;;;2.42;0.50;;;;;;;23.51;54.76;102428.56;5071071;28;20048;-44
2022/07/16 07:15:35;;;;;;;3.03;0.70;;;;;;;23.46;53.08;102430.78;5071291;28;20049;-38
2022/07/16 07:18:03;;;;;;;3.60;0.70;;;;;;;23.31;53.11;102433.09;5072121;28;20123;-36
2022/07/16 07:20:31;;;;;;;3.85;0.70;;;;;;;23.56;52.86;102425.53;5072366;28;20413;-34
2022/07/16 07:23:00;;;;;;;2.00;0.50;;;;;;;24.17;52.73;102436.28;5070951;28;20499;-39
2022/07/16 07:25:28;;;;;;;2.40;0.80;;;;;;;24.92;50.82;102431.91;5071396;28;20064;-35
2022/07/16 07:27:56;;;;;;;2.53;0.60;;;;;;;25.44;47.80;102433.13;5071616;28;20048;-41
2022/07/16 07:30:23;;;;;;;4.55;0.70;;;;;;;25.61;46.98;102441.38;5071067;28;20135;-34
2022/07/16 07:32:51;;;;;;;5.65;1.08;;;;;;;25.70;46.36;102440.06;5071759;28;20076;-35
2022/07/16 07:35:19;;;;;;;3.03;0.70;;;;;;;25.52;46.42;102446.44;5072032;28;20488;-38
2022/07/16 07:37:47;;;;;;;2.60;0.40;;;;;;;25.23;47.10;102444.72;5070840;28;20045;-40
2022/07/16 07:40:17;;;;;;;3.55;0.77;;;;;;;24.91;47.57;102444.53;5072290;28;20389;-39
2022/07/16 07:42:45;;;;;;;3.50;0.60;;;;;;;24.70;49.13;102446.69;5071624;28;20072;-44
2022/07/16 07:45:13;;;;;;;1.77;0.50;;;;;;;24.52;49.06;102456.69;5070986;28;20055;-34
2022/07/16 07:47:41;;;;;;;2.88;0.65;;;;;;;24.19;49.96;102451.84;5071539;28;20517;-43
2022/07/16 07:50:09;;;;;;;3.95;0.77;;;;;;;23.85;50.80;102458.75;5070967;28;20048;-34
2022/07/16 07:52:37;;;;;;;1.75;0.52;;;;;;;23.58;51.62;102467.94;5071869;28;20041;-34
2022/07/16 07:55:06;;;;;;;3.22;0.50;;;;;;;23.30;52.27;102468.47;5070865;28;20064;-39
2022/07/16 07:57:35;;;;;;;4.78;0.80;;;;;;;23.12;53.96;102466.09;5070699;28;20051;-35
2022/07/16 08:00:06;;;;;;;2.63;0.55;;;;;;;23.09;54.40;102473.31;5071590;28;20049;-39
2022/07/16 08:02:43;;;;;;;3.85;0.80;;;;;;;23.18;53.65;102476.91;5071614;28;20049;-42
2022/07/16 08:05:11;;;;;;;2.13;0.57;;;;;;;23.15;53.33;102476.78;5073658;28;20047;-40
2022/07/16 08:07:39;;;;;;;3.15;0.80;;;;;;;22.96;53.37;102480.09;5075638;28;20052;-33
2022/07/16 08:10:09;;;;;;;3.00;0.73;;;;;;;22.97;53.85;102476.91;5075463;28;20036;-43
2022/07/16 08:12:39;;;;;;;3.58;0.60;;;;;;;23.42;53.88;102481.94;5074803;28;20139;-39
2022/07/16 08:15:08;;;;;;;2.90;0.60;;;;;;;24.07;51.61;102485.22;5074800;28;20568;-41
2022/07/16 08:17:38;;;;;;;3.97;0.70;;;;;;;24.38;49.57;102486.38;5075365;28;20494;-40
2022/07/16 08:20:07;;;;;;;5.20;0.80;;;;;;;24.77;49.00;102481.19;5073923;28;20048;-35
2022/07/16 08:22:36;;;;;;;3.95;0.88;;;;;;;24.80;48.67;102482.47;5074628;28;20052;-36
2022/07/16 08:27:52;;;;;;;3.25;0.63;;;;;;;25.13;49.19;102491.78;5073927;28;20131;-40
2022/07/16 08:30:20;;;;;;;3.05;0.57;;;;;;;25.65;47.30;102490.97;5074174;28;20490;-36
2022/07/16 08:32:48;;;;;;;3.95;0.77;;;;;;;25.97;46.58;102489.88;5074125;28;20045;-36
2022/07/16 08:35:16;;;;;;;2.88;0.73;;;;;;;26.23;45.24;102502.84;5074858;28;20048;-39
2022/07/16 08:37:46;;;;;;;4.03;0.80;;;;;;;26.48;42.82;102509.28;5074967;28;20056;-39
2022/07/16 08:40:16;;;;;;;2.45;0.52;;;;;;;26.52;42.17;102510.22;5073680;28;20044;-35
2022/07/16 08:42:44;;;;;;;3.67;0.70;;;;;;;26.90;40.77;102507.53;5075118;28;20131;-38
2022/07/16 08:45:15;;;;;;;2.78;0.70;;;;;;;27.33;39.98;102505.72;5074262;28;20051;-39
2022/07/16 08:47:43;;;;;;;2.17;0.60;;;;;;;27.71;39.00;102513.56;5073422;28;20056;-39
2022/07/16 08:50:13;;;;;;;3.10;0.57;;;;;;;28.03;37.76;102517.91;5074639;28;20049;-39
2022/07/16 08:52:43;;;;;;;2.95;0.60;;;;;;;28.39;37.01;102518.63;5074787;28;20044;-39
2022/07/16 08:55:11;;;;;;;2.95;0.80;;;;;;;28.73;36.28;102532.00;5073570;28;20056;-34
2022/07/16 08:57:41;;;;;;;3.30;0.80;;;;;;;29.00;35.54;102532.88;5074569;28;20055;-40
2022/07/16 09:00:11;;;;;;;2.47;0.50;;;;;;;29.16;35.27;102534.78;5074234;28;20136;-35
2022/07/16 09:02:41;;;;;;;4.35;0.93;;;;;;;29.47;35.21;102540.22;5070293;28;20068;-40
2022/07/16 09:05:10;;;;;;;2.92;0.70;;;;;;;29.79;34.52;102529.97;5074502;28;20064;-42
2022/07/16 09:07:38;;;;;;;2.53;0.50;;;;;;;30.11;33.74;102535.34;5073146;28;20516;-32
2022/07/16 09:10:07;;;;;;;2.55;0.60;;;;;;;30.20;33.72;102537.88;5073872;28;20045;-37
2022/07/16 09:12:38;;;;;;;3.05;0.60;;;;;;;30.28;33.31;102543.34;5073918;28;20074;-39
2022/07/16 09:15:25;;;;;;;4.82;0.73;;;;;;;30.51;33.13;102543.19;5072911;28;20143;-39
2022/07/16 09:18:15;;;;;;;2.20;0.57;;;;;;;30.78;32.46;102543.88;5073525;28;20079;-42
2022/07/16 09:20:46;;;;;;;2.05;0.50;;;;;;;30.88;33.39;102540.25;5073824;28;20048;-40
2022/07/16 09:23:23;;;;;;;3.25;0.77;;;;;;;31.06;32.07;102551.94;5072752;28;20044;-40
2022/07/16 09:25:53;;;;;;;4.15;0.65;;;;;;;31.21;32.91;102552.91;5074135;28;20119;-41
2022/07/16 09:28:23;;;;;;;2.72;0.70;;;;;;;31.40;31.54;102550.56;5072930;28;20127;-38
2022/07/16 09:30:51;;;;;;;3.15;0.60;;;;;;;31.46;31.84;102553.91;5073118;28;20408;-41
2022/07/16 09:33:22;;;;;;;2.03;0.50;;;;;;;31.46;31.48;102553.91;5073370;28;20048;-39
2022/07/16 09:36:05;;;;;;;2.35;0.50;;;;;;;31.52;30.48;102561.78;5073370;28;20044;-41
2022/07/16 09:38:46;;;;;;;2.42;0.50;;;;;;;31.54;30.88;102560.56;5073804;28;20063;-39
2022/07/16 09:41:14;;;;;;;3.45;0.70;;;;;;;31.56;31.51;102563.88;5073832;28;20040;-40
2022/07/16 09:43:43;;;;;;;3.42;0.80;;;;;;;31.55;31.12;102571.72;5071954;28;20084;-39
2022/07/16 09:46:16;;;;;;;3.22;1.27;;;;;;;31.60;31.84;102573.38;5073396;28;20040;-44
2022/07/16 09:48:46;;;;;;;3.13;0.55;;;;;;;31.81;30.97;102573.50;5073306;28;20510;-40
2022/07/16 09:51:17;;;;;;;2.47;0.55;;;;;;;31.95;30.34;102569.88;5071558;28;20462;-41
2022/07/16 09:53:47;;;;;;;;;;;;;;;31.91;29.62;102569.03;5073850;28;20045;-38
2022/07/16 09:56:16;;;;;;;2.22;0.50;;;;;;;31.94;31.37;102574.00;5073239;28;20322;-40
2022/07/16 09:58:50;;;;;;;2.75;0.50;;;;;;;31.81;31.25;102576.41;5072421;28;20051;-42
2022/07/16 10:01:19;;;;;;;2.45;0.65;;;;;;;31.59;31.82;102581.19;5072294;28;20049;-41
2022/07/16 10:03:49;;;;;;;3.67;0.70;;;;;;;31.49;31.41;102576.19;5071981;28;20052;-40
2022/07/16 10:06:17;;;;;;;2.83;0.65;;;;;;;31.28;31.16;102584.69;5073035;28;20048;-39
2022/07/16 10:08:45;;;;;;;2.45;0.68;;;;;;;31.16;31.70;102589.56;5072418;28;20048;-39
2022/07/16 10:11:14;;;;;;;3.05;0.77;;;;;;;31.19;31.84;102587.91;5072413;28;20135;-38
2022/07/16 10:13:44;;;;;;;3.40;0.90;;;;;;;31.37;31.03;102590.97;5072684;28;20131;-33
2022/07/16 10:16:13;;;;;;;3.42;0.70;;;;;;;31.25;30.41;102586.31;5073477;28;20040;-32
2022/07/16 10:18:42;;;;;;;2.50;0.50;;;;;;;31.12;29.98;102590.75;5071876;28;20040;-32
2022/07/16 10:21:15;;;;;;;3.13;0.60;;;;;;;31.05;30.57;102585.72;5072913;28;20455;-36
2022/07/16 10:23:45;;;;;;;3.15;0.60;;;;;;;31.01;30.03;102602.16;5072884;28;20127;-37
2022/07/16 10:26:17;;;;;;;1.93;0.63;;;;;;;30.73;30.76;102594.09;5072400;28;20055;-32
2022/07/16 10:28:48;;;;;;;2.85;0.57;;;;;;;30.71;30.83;102593.66;5071373;28;20536;-33
2022/07/16 10:31:40;;;;;;;3.20;0.65;;;;;;;30.91;29.49;102602.91;5072073;28;20055;-34
2022/07/16 10:34:40;;;;;;;2.92;0.70;;;;;;;30.99;29.20;102609.53;5071605;28;20045;-35
2022/07/16 10:37:12;;;;;;;3.25;0.60;;;;;;;30.98;30.15;102607.88;5072755;28;20054;-32
2022/07/16 10:40:02;;;;;;;3.75;0.73;;;;;;;31.07;29.58;102596.88;5071427;28;20070;-34
2022/07/16 10:42:31;;;;;;;2.20;0.60;;;;;;;31.18;30.63;102613.03;5072941;28;20054;-32
2022/07/16 10:45:00;;;;;;;4.32;0.93;;;;;;;31.23;30.11;102608.97;5072117;28;20048;-32
2022/07/16 10:47:44;;;;;;;1.58;0.40;;;;;;;31.23;29.70;102614.75;5071604;28;20420;-40
2022/07/16 10:50:20;;;;;;;3.17;0.73;;;;;;;31.23;29.54;102613.91;5071954;28;20074;-35
2022/07/16 10:52:52;;;;;;;2.15;0.60;;;;;;;31.24;29.42;102625.06;5072856;28;20143;-32
2022/07/16 10:55:38;;;;;;;2.65;0.73;;;;;;;31.29;28.52;102612.31;5071322;28;20124;-41
2022/07/16 10:58:06;;;;;;;1.45;0.40;;;;;;;31.31;29.60;102609.88;5072027;28;20140;-33
2022/07/16 11:00:34;;;;;;;2.50;0.63;;;;;;;31.26;29.63;102608.19;5071171;28;20036;-41
2022/07/16 11:03:04;;;;;;;2.13;0.60;;;;;;;31.32;29.83;102611.53;5072178;28;20047;-34
2022/07/16 11:05:47;;;;;;;2.63;0.75;;;;;;;31.28;29.86;102607.78;5071835;28;20048;-40
2022/07/16 11:08:17;;;;;;;2.33;0.50;;;;;;;31.30;30.00;102616.88;5071375;28;20135;-38
2022/07/16 11:10:46;;;;;;;3.75;0.70;;;;;;;31.42;29.89;102616.53;5071803;28;20489;-36
2022/07/16 11:13:16;;;;;;;2.15;0.80;;;;;;;31.51;29.11;102619.91;5072098;28;20123;-32
2022/07/16 11:15:44;;;;;;;2.70;0.67;;;;;;;31.54;29.64;102621.16;5071007;28;20052;-42
2022/07/16 11:18:16;;;;;;;3.28;0.80;;;;;;;31.53;29.67;102626.13;5072357;28;20044;-38
2022/07/16 11:20:46;;;;;;;2.22;0.60;;;;;;;31.48;30.03;102620.72;5071421;28;20044;-37
2022/07/16 11:23:15;;;;;;;2.13;0.57;;;;;;;31.56;29.40;102624.50;5070953;28;20544;-32
2022/07/16 11:25:59;;;;;;;3.10;0.60;;;;;;;31.62;28.83;102626.56;5071430;28;20055;-37
2022/07/16 11:28:27;;;;;;;2.67;0.80;;;;;;;31.63;29.61;102638.94;5071571;28;20052;-31
2022/07/16 11:31:08;;;;;;;2.78;0.57;;;;;;;31.67;28.68;102640.66;5071542;28;20066;-31
2022/07/16 11:33:48;;;;;;;3.15;0.70;;;;;;;31.72;29.03;102640.28;5072162;28;20044;-39
2022/07/16 11:36:16;;;;;;;1.88;0.50;;;;;;;31.70;28.79;102634.09;5070503;28;20559;-35
2022/07/16 11:38:45;;;;;;;2.55;0.60;;;;;;;31.68;29.23;102647.28;5071953;28;20080;-34
2022/07/16 11:41:14;;;;;;;2.83;0.60;;;;;;;31.64;28.63;102649.25;5071449;28;20466;-34